Kezdőlap
METAR-TAF:

METAR-TAF

Repülőterek :

Offutt Air Force Base

Omaha, Nebraska, Amerikai Egyesült Államok

földrajzi szélesség: 41-07N, földrajzi hosszúság: 095-54W, magasság: 319 m

Jelenlegi meteorológiai megfigyelések

A jelentés 49 perccel ezelõtt készült, 19:56 UTC
Szélcsend
Hőmérséklet 21°C
Páratartalom 33%
Légköri nyomás 1025 hPa
Látótávolság: 16.1 km
Derült ég

METAR: KOFF 221956Z 00000KT 10SM CLR 21/04 A3028 RMK AO2A SLPNO T02110038 PWINO PNO FZRANO TSNO VISNO RWY12 CHINO RWY12 $

Idő: 15:45 (20:45 UTC)


TAF: hiányzik

Meteorológiai megfigyelések és előrejelzések több, mint 4000 repülőtéren (METAR és TAF jelentéseket).

A térképen piros és sárga pontok jelzik az elérhető meteorológiai állomásokat.

Mozgassa az egeret a pont fölött, hogy megjelenjen az állomás neve.

Azután kattintson az időjárási megfigyelések és előrejelzések megtekintéséhez.

A térkép megváltoztatása: kattintson a fekete keresztel jelölt zöld gombra ráközelítéshez, a vonallal jelölt zöld gombra távolításhoz, vagy a zöld nyilakra a szomszédos térképek eléréséhez.


METAR-TAF: